Seaspan Reliant — CFEB — position and weather

sailwx.info

Track history (hours):
 
Tides and Currents Weather Stations Pressure Air Temp Water Temp Dewpoint Dewpoint Depression Visibility Wind Speed Wind Dir Waves Ship Positions

Seaspan Reliant

Last reported at 2018-Feb-19 16:00 UTC. Time now 2018-Feb-19 16:22 UTC.
Position N 48°41' W 123°24'.

Length 150 m; draft 4 m.

Type: Ship. MMSI: 316033814.

Date/timePositionNaut miles runAvg speedWind from/ knotsBaromVisibWave heightAir tempDewpointWater temp
2018-Feb-19 16:00N 48°41' W 123°24'0 0.0
2018-Feb-19 15:30N 48°41' W 123°24'0 0.0
2018-Feb-19 15:00N 48°41' W 123°24'0 0.0
2018-Feb-19 14:30N 48°41' W 123°24'0 0.0
2018-Feb-19 14:00N 48°41' W 123°24'0 0.0
2018-Feb-19 13:30N 48°41' W 123°24'0 0.0
2018-Feb-19 13:00N 48°41' W 123°24'0 0.0
2018-Feb-19 12:30N 48°41' W 123°24'0 0.0
2018-Feb-19 12:00N 48°41' W 123°24'0 0.0
2018-Feb-19 11:30N 48°41' W 123°24'0 0.6
2018-Feb-19 11:00N 48°41' W 123°24'611.0
2018-Feb-19 10:30N 48°47' W 123°21'510.1
2018-Feb-19 10:00N 48°52' W 123°19'510.7
2018-Feb-19 09:30N 48°57' W 123°20'510.5
2018-Feb-19 09:00N 49°02' W 123°22'611.2
2018-Feb-19 08:30N 49°06' W 123°18'713.2
2018-Feb-19 08:00N 49°07' W 123°08'4 8.2
2018-Feb-19 07:29N 49°09' W 123°02'0 0.0
2018-Feb-19 06:59N 49°09' W 123°02'0 0.0
2018-Feb-19 06:29N 49°09' W 123°02'0 0.0
2018-Feb-19 05:59N 49°09' W 123°02'0 0.0
2018-Feb-19 05:29N 49°09' W 123°02'0 0.0
2018-Feb-19 04:59N 49°09' W 123°02'0 0.0
2018-Feb-19 04:29N 49°09' W 123°02'0 0.0
2018-Feb-19 03:59N 49°09' W 123°02'0 0.0
2018-Feb-19 03:29N 49°09' W 123°02'0 0.0
2018-Feb-19 02:59N 49°09' W 123°02'0 0.0
2018-Feb-19 02:26N 49°09' W 123°02'0 0.0
2018-Feb-19 01:59N 49°09' W 123°02'0 0.0
2018-Feb-19 01:29N 49°09' W 123°02'0 0.0
2018-Feb-19 00:59N 49°09' W 123°02'0 0.0
2018-Feb-19 00:29N 49°09' W 123°02'0 0.0
2018-Feb-18 23:59N 49°09' W 123°02'0 0.0
2018-Feb-18 23:29N 49°09' W 123°02'0 0.0
2018-Feb-18 22:59N 49°09' W 123°02'0 0.0
2018-Feb-18 22:29N 49°09' W 123°02'0 0.0
2018-Feb-18 21:59N 49°09' W 123°02'0 0.0
2018-Feb-18 21:29N 49°09' W 123°02'0 0.0
2018-Feb-18 20:59N 49°09' W 123°02'0 0.0
2018-Feb-18 20:29N 49°09' W 123°02'0 0.0
2018-Feb-18 19:56N 49°09' W 123°02'0 0.0
2018-Feb-18 19:29N 49°09' W 123°02'0 0.0
2018-Feb-18 18:59N 49°09' W 123°02'0 0.0
2018-Feb-18 18:29N 49°09' W 123°02'0 0.0
2018-Feb-18 17:59N 49°09' W 123°02'0 0.0
2018-Feb-18 17:29N 49°09' W 123°02'0 0.0
2018-Feb-18 16:59N 49°09' W 123°02'2 5.1
2018-Feb-18 16:30N 49°07' W 123°05'611.6
2018-Feb-18 16:00N 49°08' W 123°14'510.5
2018-Feb-18 15:29N 49°07' W 123°22'611.6
2018-Feb-18 15:00N 49°10' W 123°29'510.2
2018-Feb-18 14:29N 49°11' W 123°37'5 9.8
2018-Feb-18 13:56N 49°12' W 123°45'5 9.8
2018-Feb-18 13:26N 49°12' W 123°53'4 1.1
2018-Feb-18 10:01N 49°09' W 123°52'2 6.1
2018-Feb-18 09:45N 49°10' W 123°53'3 8.3
2018-Feb-18 09:23N 49°13' W 123°51'5 9.9
2018-Feb-18 08:55N 49°12' W 123°44'510.8
2018-Feb-18 08:30N 49°11' W 123°37'510.8
2018-Feb-18 08:00N 49°09' W 123°30'510.3
2018-Feb-18 07:29N 49°07' W 123°22'510.6
2018-Feb-18 07:01N 49°08' W 123°14'612.4
2018-Feb-18 06:30N 49°07' W 123°05'2 4.8
2018-Feb-18 06:00N 49°09' W 123°02'0 0.0
2018-Feb-18 05:30N 49°09' W 123°02'0 0.0
2018-Feb-18 04:58N 49°09' W 123°02'0 0.0
2018-Feb-18 04:28N 49°09' W 123°02'0 0.0
2018-Feb-18 03:58N 49°09' W 123°02'0 0.0
2018-Feb-18 03:28N 49°09' W 123°02'0 0.0
2018-Feb-18 02:58N 49°09' W 123°02'0 0.0
2018-Feb-18 02:28N 49°09' W 123°02'0 0.0
2018-Feb-18 01:58N 49°09' W 123°02'0 0.0
2018-Feb-18 01:28N 49°09' W 123°02'0 0.0
2018-Feb-18 01:00N 49°09' W 123°02'0 0.0
2018-Feb-18 00:30N 49°09' W 123°02'0 0.0
2018-Feb-18 00:00N 49°09' W 123°02'0 0.0
2018-Feb-17 23:30N 49°09' W 123°02'0 0.0
2018-Feb-17 23:00N 49°09' W 123°02'3 6.4
2018-Feb-17 22:30N 49°07' W 123°06'611.7
2018-Feb-17 22:00N 49°08' W 123°15'612.6
2018-Feb-17 21:31N 49°02' W 123°19'815.5
2018-Feb-17 21:01N 48°54' W 123°18'612.5
2018-Feb-17 20:31N 48°48' W 123°20'714.3
2018-Feb-17 20:00N 48°42' W 123°24'1 1.0
2018-Feb-17 19:30N 48°41' W 123°24'0 0.0
2018-Feb-17 19:00N 48°41' W 123°24'0 0.0
2018-Feb-17 18:30N 48°41' W 123°24'0 0.0
2018-Feb-17 18:00N 48°41' W 123°24'0 0.0
2018-Feb-17 17:30N 48°41' W 123°24'0 0.0
2018-Feb-17 17:00N 48°41' W 123°24'0 0.0
2018-Feb-17 16:30N 48°41' W 123°24'0 0.0
2018-Feb-17 16:00N 48°41' W 123°24'0 0.0
2018-Feb-17 15:30N 48°41' W 123°24'0 0.0
2018-Feb-17 15:00N 48°41' W 123°24'0 0.0
2018-Feb-17 14:30N 48°41' W 123°24'0 0.0
2018-Feb-17 14:00N 48°41' W 123°24'0 0.0
2018-Feb-17 13:30N 48°41' W 123°24'2 4.1
2018-Feb-17 13:00N 48°42' W 123°22'612.8
2018-Feb-17 12:30N 48°49' W 123°21'5 9.8
2018-Feb-17 12:00N 48°53' W 123°18'714.0
2018-Feb-17 11:31N 48°60' W 123°21'713.1
2018-Feb-17 11:00N 49°06' W 123°18'713.6
2018-Feb-17 10:30N 49°06' W 123°08'4 8.6
2018-Feb-17 10:00N 49°09' W 123°02'0 0.0
2018-Feb-17 09:30N 49°09' W 123°02'0 0.0
2018-Feb-17 09:00N 49°09' W 123°02'0 0.2
2018-Feb-17 08:30N 49°09' W 123°02'4 8.5
2018-Feb-17 08:00N 49°06' W 123°08'510.8
2018-Feb-17 07:30N 49°07' W 123°16'713.1
2018-Feb-17 07:00N 49°07' W 123°26'815.9
2018-Feb-17 06:29N 49°10' W 123°38'916.1
2018-Feb-17 05:57N 49°13' W 123°50'4 1.9
2018-Feb-17 03:43N 49°09' W 123°52'2 6.5
2018-Feb-17 03:29N 49°10' W 123°53'611.7
2018-Feb-17 02:58N 49°12' W 123°44'714.3
2018-Feb-17 02:29N 49°10' W 123°34'714.3
2018-Feb-17 02:00N 49°08' W 123°24'612.5
2018-Feb-17 01:30N 49°08' W 123°15'612.8
2018-Feb-17 01:00N 49°07' W 123°05'3 5.2
2018-Feb-17 00:30N 49°09' W 123°02'0 0.0
2018-Feb-17 00:00N 49°09' W 123°02'0 0.0
2018-Feb-16 23:30N 49°09' W 123°02'0 0.0
2018-Feb-16 23:00N 49°09' W 123°02'3 5.4
2018-Feb-16 22:30N 49°07' W 123°05'612.5
2018-Feb-16 22:00N 49°08' W 123°15'611.5
2018-Feb-16 21:30N 49°02' W 123°18'713.9
2018-Feb-16 21:00N 48°55' W 123°18'612.8
2018-Feb-16 20:30N 48°49' W 123°21'815.5
2018-Feb-16 20:01N 48°42' W 123°22'1 3.0
2018-Feb-16 19:31N 48°41' W 123°24'0 0.0
2018-Feb-16 19:00N 48°41' W 123°24'0 0.0
2018-Feb-16 18:30N 48°41' W 123°24'0 0.0
2018-Feb-16 18:01N 48°41' W 123°24'0 0.0
2018-Feb-16 17:31N 48°41' W 123°24'0 0.0
2018-Feb-16 17:00N 48°41' W 123°24'0 0.0
2018-Feb-16 16:30N 48°41' W 123°24'0 0.0
2018-Feb-16 15:59N 48°41' W 123°24'0 0.0
2018-Feb-16 15:31N 48°41' W 123°24'0 0.0
2018-Feb-16 15:00N 48°41' W 123°24'0 0.0
2018-Feb-16 14:31N 48°41' W 123°24'0 0.0
2018-Feb-16 14:00N 48°41' W 123°24'0 0.1
2018-Feb-16 13:30N 48°41' W 123°24'5 9.5
2018-Feb-16 13:00N 48°46' W 123°21'611.9
2018-Feb-16 12:29N 48°52' W 123°19'714.3
2018-Feb-16 12:00N 48°59' W 123°19'714.2
2018-Feb-16 11:31N 49°06' W 123°19'612.0
2018-Feb-16 11:00N 49°07' W 123°10'510.9
2018-Feb-16 10:30N 49°09' W 123°03'0 0.7
2018-Feb-16 10:00N 49°09' W 123°02'0 0.0
2018-Feb-16 09:30N 49°09' W 123°02'0 0.0
2018-Feb-16 09:00N 49°09' W 123°02'0 0.2
2018-Feb-16 08:30N 49°09' W 123°02'4 8.7
2018-Feb-16 08:00N 49°06' W 123°08'510.1
2018-Feb-16 07:30N 49°07' W 123°15'611.4
2018-Feb-16 07:00N 49°07' W 123°24'714.6
2018-Feb-16 06:31N 49°09' W 123°34'814.3
2018-Feb-16 05:59N 49°12' W 123°45'5 2.2
2018-Feb-16 03:29N 49°09' W 123°52'7 9.1
2018-Feb-16 02:43N 49°12' W 123°43'315.1
2018-Feb-16 02:29N 49°11' W 123°38'715.0
2018-Feb-16 02:00N 49°08' W 123°28'714.0
2018-Feb-16 01:30N 49°07' W 123°17'713.5
2018-Feb-16 01:00N 49°07' W 123°07'4 7.5
2018-Feb-16 00:31N 49°09' W 123°02'0 0.0
2018-Feb-16 00:00N 49°09' W 123°02'0 0.0
2018-Feb-15 23:31N 49°09' W 123°02'0 0.0
2018-Feb-15 23:00N 49°09' W 123°02'3 5.7
2018-Feb-15 22:30N 49°07' W 123°05'613.1
2018-Feb-15 22:00N 49°07' W 123°15'612.1
2018-Feb-15 21:30N 49°02' W 123°18'816.4
2018-Feb-15 21:00N 48°53' W 123°18'612.5
2018-Feb-15 20:30N 48°47' W 123°20'612.4
2018-Feb-15 20:00N 48°42' W 123°24'0 0.8
2018-Feb-15 19:30N 48°41' W 123°24'0 0.0
2018-Feb-15 19:00N 48°41' W 123°24'0 0.0
2018-Feb-15 18:30N 48°41' W 123°24'0 0.0
2018-Feb-15 18:00N 48°41' W 123°24'0 0.0
2018-Feb-15 17:30N 48°41' W 123°24'0 0.0
2018-Feb-15 17:00N 48°41' W 123°24'0 0.0
2018-Feb-15 16:30N 48°41' W 123°24'0 0.0
2018-Feb-15 16:00N 48°41' W 123°24'0 0.0
2018-Feb-15 15:30N 48°41' W 123°24'0 0.0
2018-Feb-15 15:00N 48°41' W 123°24'0 0.0
2018-Feb-15 14:30N 48°41' W 123°24'0 0.0
2018-Feb-15 14:00N 48°41' W 123°24'0 0.0
2018-Feb-15 13:30N 48°41' W 123°24'4 7.8
2018-Feb-15 13:00N 48°44' W 123°21'714.6
2018-Feb-15 12:30N 48°52' W 123°20'713.5
2018-Feb-15 12:00N 48°58' W 123°20'715.0
2018-Feb-15 11:31N 49°06' W 123°19'713.5
2018-Feb-15 11:00N 49°07' W 123°09'510.2
2018-Feb-15 10:30N 49°09' W 123°02'0 0.0
2018-Feb-15 10:00N 49°09' W 123°02'0 0.0
2018-Feb-15 09:30N 49°09' W 123°02'0 0.0
2018-Feb-15 09:00N 49°09' W 123°02'0 0.4
2018-Feb-15 08:30N 49°09' W 123°02'510.5
2018-Feb-15 08:00N 49°07' W 123°10'510.5
2018-Feb-15 07:30N 49°06' W 123°18'713.6
2018-Feb-15 07:00N 49°08' W 123°28'815.1
2018-Feb-15 06:30N 49°11' W 123°39'815.3
2018-Feb-15 06:00N 49°13' W 123°50'3 1.4
2018-Feb-15 03:33N 49°10' W 123°53'115.5
2018-Feb-15 03:30N 49°10' W 123°53'610.8
2018-Feb-15 02:59N 49°13' W 123°45'815.4
2018-Feb-15 02:29N 49°10' W 123°34'815.7
2018-Feb-15 01:59N 49°08' W 123°22'5 9.8
2018-Feb-15 01:31N 49°08' W 123°15'612.7
2018-Feb-15 01:00N 49°07' W 123°05'3 5.5
2018-Feb-15 00:30N 49°09' W 123°02'0 0.0
2018-Feb-15 00:00N 49°09' W 123°02'0 0.0
2018-Feb-14 23:30N 49°09' W 123°02'0 0.2
2018-Feb-14 23:00N 49°09' W 123°02'510.6
2018-Feb-14 22:30N 49°07' W 123°10'713.2
2018-Feb-14 22:01N 49°06' W 123°20'713.2
2018-Feb-14 21:30N 48°60' W 123°18'815.0
2018-Feb-14 21:00N 48°52' W 123°18'611.2
2018-Feb-14 20:30N 48°47' W 123°20'611.3
2018-Feb-14 20:00N 48°42' W 123°24'0 0.5
2018-Feb-14 19:30N 48°41' W 123°24'0 0.0
2018-Feb-14 19:00N 48°41' W 123°24'0 0.0
2018-Feb-14 18:30N 48°41' W 123°24'0 0.0
2018-Feb-14 18:00N 48°41' W 123°24'0 0.0
2018-Feb-14 17:30N 48°41' W 123°24'0 0.0
2018-Feb-14 17:00N 48°41' W 123°24'0 0.0
2018-Feb-14 16:30N 48°41' W 123°24'0 0.0
2018-Feb-14 16:00N 48°41' W 123°24'0 0.0
2018-Feb-14 15:30N 48°41' W 123°24'0 0.0
2018-Feb-14 15:00N 48°41' W 123°24'0 0.0
2018-Feb-14 14:30N 48°41' W 123°24'0 0.0
2018-Feb-14 14:00N 48°41' W 123°24'0 0.3
2018-Feb-14 13:30N 48°41' W 123°24'5 9.9
2018-Feb-14 13:01N 48°46' W 123°21'713.2
2018-Feb-14 12:31N 48°52' W 123°18'815.7
2018-Feb-14 12:00N 49°00' W 123°19'713.3
2018-Feb-14 11:31N 49°07' W 123°17'611.7
2018-Feb-14 11:00N 49°07' W 123°08'5 9.1
2018-Feb-14 10:30N 49°09' W 123°02'0 0.0
2018-Feb-14 10:00N 49°09' W 123°02'0 0.0
2018-Feb-14 09:30N 49°09' W 123°02'0 0.0
2018-Feb-14 09:00N 49°09' W 123°02'2 3.8
2018-Feb-14 08:30N 49°07' W 123°04'611.5
2018-Feb-14 08:00N 49°08' W 123°13'611.5
2018-Feb-14 07:30N 49°06' W 123°22'714.2
2018-Feb-14 07:00N 49°09' W 123°32'914.0
2018-Feb-14 06:24N 49°12' W 123°44'611.6
2018-Feb-14 05:53N 49°12' W 123°53'5 1.9
2018-Feb-14 03:08N 49°13' W 123°45'314.6
2018-Feb-14 02:57N 49°12' W 123°41'714.6
2018-Feb-14 02:30N 49°10' W 123°32'714.5
2018-Feb-14 02:00N 49°07' W 123°22'713.2
2018-Feb-14 01:30N 49°07' W 123°12'611.9
2018-Feb-14 01:00N 49°08' W 123°03'1 1.0
2018-Feb-14 00:30N 49°09' W 123°02'0 0.0
2018-Feb-14 00:00N 49°09' W 123°02'0 0.0
2018-Feb-13 23:30N 49°09' W 123°02'0 0.3
2018-Feb-13 23:00N 49°09' W 123°02'510.7
2018-Feb-13 22:30N 49°07' W 123°10'612.8
2018-Feb-13 22:00N 49°06' W 123°19'815.5
2018-Feb-13 21:30N 48°58' W 123°17'713.7
2018-Feb-13 21:00N 48°51' W 123°21'714.0
2018-Feb-13 20:30N 48°44' W 123°21'4 8.0
2018-Feb-13 20:00N 48°41' W 123°24'0 0.0
2018-Feb-13 19:30N 48°41' W 123°24'0 0.0
2018-Feb-13 19:00N 48°41' W 123°24'0 0.0
2018-Feb-13 18:30N 48°41' W 123°24'0 0.0
2018-Feb-13 18:00N 48°41' W 123°24'0 0.0
2018-Feb-13 17:30N 48°41' W 123°24'0 0.0
2018-Feb-13 17:00N 48°41' W 123°24'0 0.0
2018-Feb-13 16:30N 48°41' W 123°24'0 0.0
2018-Feb-13 16:00N 48°41' W 123°24'0 0.0
2018-Feb-13 15:30N 48°41' W 123°24'0 0.0
2018-Feb-13 15:00N 48°41' W 123°24'0 0.0
2018-Feb-13 14:30N 48°41' W 123°24'0 0.0
2018-Feb-13 14:00N 48°41' W 123°24'0 0.0
2018-Feb-13 13:30N 48°41' W 123°24'0 0.0
2018-Feb-13 13:00N 48°41' W 123°24'0 0.0
2018-Feb-13 12:30N 48°41' W 123°24'0 0.0
2018-Feb-13 12:00N 48°41' W 123°24'0 0.0
2018-Feb-13 11:30N 48°41' W 123°24'0 0.0
2018-Feb-13 11:00N 48°41' W 123°24'5 9.5
2018-Feb-13 10:31N 48°45' W 123°21'612.4
2018-Feb-13 10:00N 48°52' W 123°20'611.1
2018-Feb-13 09:30N 48°57' W 123°19'612.8
2018-Feb-13 09:00N 49°03' W 123°21'611.9
2018-Feb-13 08:30N 49°08' W 123°15'611.9
2018-Feb-13 08:01N 49°07' W 123°06'3 6.3
2018-Feb-13 07:30N 49°09' W 123°02'0 0.0
2018-Feb-13 07:00N 49°09' W 123°02'0 0.0
2018-Feb-13 06:30N 49°09' W 123°02'0 0.0
2018-Feb-13 06:00N 49°09' W 123°02'0 0.0
2018-Feb-13 05:30N 49°09' W 123°02'0 0.0
2018-Feb-13 05:00N 49°09' W 123°02'0 0.0
2018-Feb-13 04:30N 49°09' W 123°02'0 0.0
2018-Feb-13 04:00N 49°09' W 123°02'0 0.0
2018-Feb-13 03:30N 49°09' W 123°02'0 0.0
2018-Feb-13 03:00N 49°09' W 123°02'0 0.0
2018-Feb-13 02:30N 49°09' W 123°02'0 0.0
2018-Feb-13 02:00N 49°09' W 123°02'0 0.0
2018-Feb-13 01:30N 49°09' W 123°02'0 0.0
2018-Feb-13 01:00N 49°09' W 123°02'0 0.0
2018-Feb-13 00:30N 49°09' W 123°02'0 0.0
2018-Feb-13 00:00N 49°09' W 123°02'0 0.0
2018-Feb-12 23:30N 49°09' W 123°02'0 0.0
2018-Feb-12 23:00N 49°09' W 123°02'0 0.0
2018-Feb-12 22:30N 49°09' W 123°02'0 0.0
2018-Feb-12 22:00N 49°09' W 123°02'0 0.0
2018-Feb-12 21:30N 49°09' W 123°02'0 0.0
2018-Feb-12 21:00N 49°09' W 123°02'0 0.0
2018-Feb-12 20:30N 49°09' W 123°02'0 0.0
2018-Feb-12 20:00N 49°09' W 123°02'0 0.0
2018-Feb-12 19:28N 49°09' W 123°02'0 0.0
2018-Feb-12 19:00N 49°09' W 123°02'0 0.0
2018-Feb-12 18:30N 49°09' W 123°02'0 0.0
2018-Feb-12 18:00N 49°09' W 123°02'0 0.0
2018-Feb-12 17:30N 49°09' W 123°02'0 0.0
2018-Feb-12 17:00N 49°09' W 123°02'0 0.1
2018-Feb-12 16:30N 49°09' W 123°02'5 9.8
2018-Feb-12 15:59N 49°07' W 123°09'511.3
2018-Feb-12 15:30N 49°07' W 123°17'510.3
2018-Feb-12 15:00N 49°01' W 123°18'612.4
2018-Feb-12 14:30N 48°55' W 123°17'510.8
2018-Feb-12 14:00N 48°51' W 123°21'612.7
2018-Feb-12 13:30N 48°44' W 123°21'4 7.8
2018-Feb-12 13:00N 48°41' W 123°24'0 0.0
2018-Feb-12 12:30N 48°41' W 123°24'0 0.0
2018-Feb-12 12:00N 48°41' W 123°24'0 0.0
2018-Feb-12 11:30N 48°41' W 123°24'0 0.0
2018-Feb-12 11:00N 48°41' W 123°24'3 6.3
2018-Feb-12 10:30N 48°43' W 123°21'713.4
2018-Feb-12 10:00N 48°50' W 123°21'510.3
2018-Feb-12 09:30N 48°55' W 123°18'612.6
2018-Feb-12 09:00N 49°01' W 123°20'611.3
2018-Feb-12 08:30N 49°07' W 123°17'611.7
2018-Feb-12 08:00N 49°07' W 123°08'5 9.1
2018-Feb-12 07:30N 49°09' W 123°02'0 0.0
2018-Feb-12 07:00N 49°09' W 123°02'0 0.0
2018-Feb-12 06:30N 49°09' W 123°02'0 0.0
2018-Feb-12 06:00N 49°09' W 123°02'0 0.0
2018-Feb-12 05:30N 49°09' W 123°02'0 0.0
2018-Feb-12 05:00N 49°09' W 123°02'0 0.0
2018-Feb-12 04:30N 49°09' W 123°02'0 0.0
2018-Feb-12 04:00N 49°09' W 123°02'0 0.0
2018-Feb-12 03:30N 49°09' W 123°02'0 0.0
2018-Feb-12 03:00N 49°09' W 123°02'0 0.0
2018-Feb-12 02:30N 49°09' W 123°02'0 0.0
2018-Feb-12 02:00N 49°09' W 123°02'0 0.0
2018-Feb-12 01:30N 49°09' W 123°02'0 0.0
2018-Feb-12 01:00N 49°09' W 123°02'0 0.0
2018-Feb-12 00:30N 49°09' W 123°02'0 0.0
2018-Feb-12 00:00N 49°09' W 123°02'0 0.0
2018-Feb-11 23:30N 49°09' W 123°02'0 0.0
2018-Feb-11 23:00N 49°09' W 123°02'0 0.0
2018-Feb-11 22:30N 49°09' W 123°02'0 0.0
2018-Feb-11 22:00N 49°09' W 123°02'0 0.0
2018-Feb-11 21:30N 49°09' W 123°02'0 0.0
2018-Feb-11 21:00N 49°09' W 123°02'0 0.0
2018-Feb-11 20:30N 49°09' W 123°02'0 0.0
2018-Feb-11 20:00N 49°09' W 123°02'0 0.0
2018-Feb-11 19:30N 49°09' W 123°02'0 0.0
2018-Feb-11 19:00N 49°09' W 123°02'0 0.0
2018-Feb-11 18:30N 49°09' W 123°02'0 0.0
2018-Feb-11 18:00N 49°09' W 123°02'0 0.0
2018-Feb-11 17:30N 49°09' W 123°02'0 0.0
2018-Feb-11 17:00N 49°09' W 123°02'2 4.5
2018-Feb-11 16:30N 49°07' W 123°05'5 9.8
2018-Feb-11 16:00N 49°07' W 123°12'510.7
2018-Feb-11 15:30N 49°06' W 123°20'611.1
2018-Feb-11 15:00N 49°08' W 123°28'611.0
2018-Feb-11 14:29N 49°10' W 123°36'611.5
2018-Feb-11 14:00N 49°12' W 123°44'510.8
2018-Feb-11 13:30N 49°13' W 123°52'4 1.1
2018-Feb-11 10:01N 49°09' W 123°52'0 4.0
2018-Feb-11 09:58N 49°09' W 123°52'6 9.1
2018-Feb-11 09:17N 49°13' W 123°46'413.4
2018-Feb-11 08:59N 49°13' W 123°40'714.2
2018-Feb-11 08:30N 49°10' W 123°30'715.1
2018-Feb-11 08:01N 49°07' W 123°20'612.8
2018-Feb-11 07:30N 49°07' W 123°10'611.3
2018-Feb-11 07:00N 49°09' W 123°02'0 0.2
2018-Feb-11 06:30N 49°09' W 123°02'0 0.0
2018-Feb-11 06:00N 49°09' W 123°02'0 0.0
2018-Feb-11 05:30N 49°09' W 123°02'0 0.0
2018-Feb-11 05:00N 49°09' W 123°02'0 0.0
2018-Feb-11 04:30N 49°09' W 123°02'0 0.0
2018-Feb-11 04:00N 49°09' W 123°02'0 0.0
2018-Feb-11 03:30N 49°09' W 123°02'0 0.0
2018-Feb-11 03:00N 49°09' W 123°02'0 0.0
2018-Feb-11 02:30N 49°09' W 123°02'0 0.0
2018-Feb-11 02:00N 49°09' W 123°02'0 0.0
2018-Feb-11 01:30N 49°09' W 123°02'0 0.0
2018-Feb-11 01:00N 49°09' W 123°02'0 0.0
2018-Feb-11 00:30N 49°09' W 123°02'0 0.0
2018-Feb-11 00:00N 49°09' W 123°02'0 0.0
2018-Feb-10 23:30N 49°09' W 123°02'0 0.0
2018-Feb-10 23:00N 49°09' W 123°02'4 8.2
2018-Feb-10 22:30N 49°07' W 123°07'612.6
2018-Feb-10 22:01N 49°07' W 123°17'612.4
2018-Feb-10 21:30N 49°01' W 123°17'815.4
2018-Feb-10 20:59N 48°53' W 123°18'510.9
2018-Feb-10 20:31N 48°48' W 123°20'713.1
2018-Feb-10 20:00N 48°42' W 123°24'0 0.8
2018-Feb-10 19:30N 48°41' W 123°24'0 0.0
2018-Feb-10 19:00N 48°41' W 123°24'0 0.0
2018-Feb-10 18:30N 48°41' W 123°24'0 0.0
2018-Feb-10 18:00N 48°41' W 123°24'0 0.0
2018-Feb-10 17:30N 48°41' W 123°24'0 0.0
2018-Feb-10 17:00N 48°41' W 123°24'0 0.0
2018-Feb-10 16:30N 48°41' W 123°24'0 0.0
2018-Feb-10 16:00N 48°41' W 123°24'0 0.0
2018-Feb-10 15:30N 48°41' W 123°24'0 0.0
2018-Feb-10 15:00N 48°41' W 123°24'0 0.0
2018-Feb-10 14:30N 48°41' W 123°24'0 0.0
2018-Feb-10 14:00N 48°41' W 123°24'0 0.0
2018-Feb-10 13:30N 48°41' W 123°24'2 3.4
2018-Feb-10 13:00N 48°42' W 123°22'612.7
2018-Feb-10 12:30N 48°48' W 123°21'611.1
2018-Feb-10 12:00N 48°54' W 123°18'714.0
2018-Feb-10 11:31N 49°00' W 123°21'612.6
2018-Feb-10 11:00N 49°06' W 123°18'612.3
2018-Feb-10 10:30N 49°06' W 123°09'5 9.7
2018-Feb-10 10:00N 49°09' W 123°02'0 0.0
2018-Feb-10 09:30N 49°09' W 123°02'0 0.0
2018-Feb-10 09:00N 49°09' W 123°02'0 0.0
2018-Feb-10 08:30N 49°09' W 123°02'4 7.5
2018-Feb-10 08:00N 49°07' W 123°07'612.1
2018-Feb-10 07:30N 49°07' W 123°16'612.5
2018-Feb-10 06:59N 49°07' W 123°26'612.6
2018-Feb-10 06:30N 49°09' W 123°35'713.4
2018-Feb-10 05:59N 49°12' W 123°45'6 2.1
2018-Feb-10 03:17N 49°11' W 123°53'613.0
2018-Feb-10 02:48N 49°12' W 123°44'413.7
2018-Feb-10 02:30N 49°11' W 123°38'713.6
2018-Feb-10 02:00N 49°08' W 123°28'714.2
2018-Feb-10 01:30N 49°06' W 123°18'815.3
2018-Feb-10 01:00N 49°07' W 123°06'3 6.6
2018-Feb-10 00:30N 49°09' W 123°02'0 0.0
2018-Feb-10 00:00N 49°09' W 123°02'0 0.0
2018-Feb-09 23:30N 49°09' W 123°02'0 0.2
2018-Feb-09 23:00N 49°09' W 123°02'310.9
2018-Feb-09 22:45N 49°07' W 123°05'1810.4
2018-Feb-09 21:00N 48°52' W 123°20'  
Track history (hours):
 
Tides and Currents Weather Stations Pressure Air Temp Water Temp Dewpoint Dewpoint Depression Visibility Wind Speed Wind Dir Waves Ship Positions

Seaspan Reliant

Last reported at 2018-Feb-19 16:00 UTC. Time now 2018-Feb-19 16:22 UTC.
Position N 48°41' W 123°24'.

Length 150 m; draft 4 m.

Type: Ship. MMSI: 316033814.

Date/timePositionNaut miles runAvg speedWind from/ knotsBaromVisibWave heightAir tempDewpointWater temp
2018-Feb-19 16:00N 48°41' W 123°24'0 0.0
2018-Feb-19 15:30N 48°41' W 123°24'0 0.0
2018-Feb-19 15:00N 48°41' W 123°24'0 0.0
2018-Feb-19 14:30N 48°41' W 123°24'0 0.0
2018-Feb-19 14:00N 48°41' W 123°24'0 0.0
2018-Feb-19 13:30N 48°41' W 123°24'0 0.0
2018-Feb-19 13:00N 48°41' W 123°24'0 0.0
2018-Feb-19 12:30N 48°41' W 123°24'0 0.0
2018-Feb-19 12:00N 48°41' W 123°24'0 0.0
2018-Feb-19 11:30N 48°41' W 123°24'0 0.6
2018-Feb-19 11:00N 48°41' W 123°24'611.0
2018-Feb-19 10:30N 48°47' W 123°21'510.1
2018-Feb-19 10:00N 48°52' W 123°19'510.7
2018-Feb-19 09:30N 48°57' W 123°20'510.5
2018-Feb-19 09:00N 49°02' W 123°22'611.2
2018-Feb-19 08:30N 49°06' W 123°18'713.2
2018-Feb-19 08:00N 49°07' W 123°08'4 8.2
2018-Feb-19 07:29N 49°09' W 123°02'0 0.0
2018-Feb-19 06:59N 49°09' W 123°02'0 0.0
2018-Feb-19 06:29N 49°09' W 123°02'0 0.0
2018-Feb-19 05:59N 49°09' W 123°02'0 0.0
2018-Feb-19 05:29N 49°09' W 123°02'0 0.0
2018-Feb-19 04:59N 49°09' W 123°02'0 0.0
2018-Feb-19 04:29N 49°09' W 123°02'0 0.0
2018-Feb-19 03:59N 49°09' W 123°02'0 0.0
2018-Feb-19 03:29N 49°09' W 123°02'0 0.0
2018-Feb-19 02:59N 49°09' W 123°02'0 0.0
2018-Feb-19 02:26N 49°09' W 123°02'0 0.0
2018-Feb-19 01:59N 49°09' W 123°02'0 0.0
2018-Feb-19 01:29N 49°09' W 123°02'0 0.0
2018-Feb-19 00:59N 49°09' W 123°02'0 0.0
2018-Feb-19 00:29N 49°09' W 123°02'0 0.0
2018-Feb-18 23:59N 49°09' W 123°02'0 0.0
2018-Feb-18 23:29N 49°09' W 123°02'0 0.0
2018-Feb-18 22:59N 49°09' W 123°02'0 0.0
2018-Feb-18 22:29N 49°09' W 123°02'0 0.0
2018-Feb-18 21:59N 49°09' W 123°02'0 0.0
2018-Feb-18 21:29N 49°09' W 123°02'0 0.0
2018-Feb-18 20:59N 49°09' W 123°02'0 0.0
2018-Feb-18 20:29N 49°09' W 123°02'0 0.0
2018-Feb-18 19:56N 49°09' W 123°02'0 0.0
2018-Feb-18 19:29N 49°09' W 123°02'0 0.0
2018-Feb-18 18:59N 49°09' W 123°02'0 0.0
2018-Feb-18 18:29N 49°09' W 123°02'0 0.0
2018-Feb-18 17:59N 49°09' W 123°02'0 0.0
2018-Feb-18 17:29N 49°09' W 123°02'0 0.0
2018-Feb-18 16:59N 49°09' W 123°02'2 5.1
2018-Feb-18 16:30N 49°07' W 123°05'611.6
2018-Feb-18 16:00N 49°08' W 123°14'510.5
2018-Feb-18 15:29N 49°07' W 123°22'611.6
2018-Feb-18 15:00N 49°10' W 123°29'510.2
2018-Feb-18 14:29N 49°11' W 123°37'5 9.8
2018-Feb-18 13:56N 49°12' W 123°45'5 9.8
2018-Feb-18 13:26N 49°12' W 123°53'4 1.1
2018-Feb-18 10:01N 49°09' W 123°52'2 6.1
2018-Feb-18 09:45N 49°10' W 123°53'3 8.3
2018-Feb-18 09:23N 49°13' W 123°51'5 9.9
2018-Feb-18 08:55N 49°12' W 123°44'510.8
2018-Feb-18 08:30N 49°11' W 123°37'510.8
2018-Feb-18 08:00N 49°09' W 123°30'510.3
2018-Feb-18 07:29N 49°07' W 123°22'510.6
2018-Feb-18 07:01N 49°08' W 123°14'612.4
2018-Feb-18 06:30N 49°07' W 123°05'2 4.8
2018-Feb-18 06:00N 49°09' W 123°02'0 0.0
2018-Feb-18 05:30N 49°09' W 123°02'0 0.0
2018-Feb-18 04:58N 49°09' W 123°02'0 0.0
2018-Feb-18 04:28N 49°09' W 123°02'0 0.0
2018-Feb-18 03:58N 49°09' W 123°02'0 0.0
2018-Feb-18 03:28N 49°09' W 123°02'0 0.0
2018-Feb-18 02:58N 49°09' W 123°02'0 0.0
2018-Feb-18 02:28N 49°09' W 123°02'0 0.0
2018-Feb-18 01:58N 49°09' W 123°02'0 0.0
2018-Feb-18 01:28N 49°09' W 123°02'0 0.0
2018-Feb-18 01:00N 49°09' W 123°02'0 0.0
2018-Feb-18 00:30N 49°09' W 123°02'0 0.0
2018-Feb-18 00:00N 49°09' W 123°02'0 0.0
2018-Feb-17 23:30N 49°09' W 123°02'0 0.0
2018-Feb-17 23:00N 49°09' W 123°02'3 6.4
2018-Feb-17 22:30N 49°07' W 123°06'611.7
2018-Feb-17 22:00N 49°08' W 123°15'612.6
2018-Feb-17 21:31N 49°02' W 123°19'815.5
2018-Feb-17 21:01N 48°54' W 123°18'612.5
2018-Feb-17 20:31N 48°48' W 123°20'714.3
2018-Feb-17 20:00N 48°42' W 123°24'1 1.0
2018-Feb-17 19:30N 48°41' W 123°24'0 0.0
2018-Feb-17 19:00N 48°41' W 123°24'0 0.0
2018-Feb-17 18:30N 48°41' W 123°24'0 0.0
2018-Feb-17 18:00N 48°41' W 123°24'0 0.0
2018-Feb-17 17:30N 48°41' W 123°24'0 0.0
2018-Feb-17 17:00N 48°41' W 123°24'0 0.0
2018-Feb-17 16:30N 48°41' W 123°24'0 0.0
2018-Feb-17 16:00N 48°41' W 123°24'0 0.0
2018-Feb-17 15:30N 48°41' W 123°24'0 0.0
2018-Feb-17 15:00N 48°41' W 123°24'0 0.0
2018-Feb-17 14:30N 48°41' W 123°24'0 0.0
2018-Feb-17 14:00N 48°41' W 123°24'0 0.0
2018-Feb-17 13:30N 48°41' W 123°24'2 4.1
2018-Feb-17 13:00N 48°42' W 123°22'612.8
2018-Feb-17 12:30N 48°49' W 123°21'5 9.8
2018-Feb-17 12:00N 48°53' W 123°18'714.0
2018-Feb-17 11:31N 48°60' W 123°21'713.1
2018-Feb-17 11:00N 49°06' W 123°18'713.6
2018-Feb-17 10:30N 49°06' W 123°08'4 8.6
2018-Feb-17 10:00N 49°09' W 123°02'0 0.0
2018-Feb-17 09:30N 49°09' W 123°02'0 0.0
2018-Feb-17 09:00N 49°09' W 123°02'0 0.2
2018-Feb-17 08:30N 49°09' W 123°02'4 8.5
2018-Feb-17 08:00N 49°06' W 123°08'510.8
2018-Feb-17 07:30N 49°07' W 123°16'713.1
2018-Feb-17 07:00N 49°07' W 123°26'815.9
2018-Feb-17 06:29N 49°10' W 123°38'916.1
2018-Feb-17 05:57N 49°13' W 123°50'4 1.9
2018-Feb-17 03:43N 49°09' W 123°52'2 6.5
2018-Feb-17 03:29N 49°10' W 123°53'611.7
2018-Feb-17 02:58N 49°12' W 123°44'714.3
2018-Feb-17 02:29N 49°10' W 123°34'714.3
2018-Feb-17 02:00N 49°08' W 123°24'612.5
2018-Feb-17 01:30N 49°08' W 123°15'612.8
2018-Feb-17 01:00N 49°07' W 123°05'3 5.2
2018-Feb-17 00:30N 49°09' W 123°02'0 0.0
2018-Feb-17 00:00N 49°09' W 123°02'0 0.0
2018-Feb-16 23:30N 49°09' W 123°02'0 0.0
2018-Feb-16 23:00N 49°09' W 123°02'3 5.4
2018-Feb-16 22:30N 49°07' W 123°05'612.5
2018-Feb-16 22:00N 49°08' W 123°15'611.5
2018-Feb-16 21:30N 49°02' W 123°18'713.9
2018-Feb-16 21:00N 48°55' W 123°18'612.8
2018-Feb-16 20:30N 48°49' W 123°21'815.5
2018-Feb-16 20:01N 48°42' W 123°22'1 3.0
2018-Feb-16 19:31N 48°41' W 123°24'0 0.0
2018-Feb-16 19:00N 48°41' W 123°24'0 0.0
2018-Feb-16 18:30N 48°41' W 123°24'0 0.0
2018-Feb-16 18:01N 48°41' W 123°24'0 0.0
2018-Feb-16 17:31N 48°41' W 123°24'0 0.0
2018-Feb-16 17:00N 48°41' W 123°24'0 0.0
2018-Feb-16 16:30N 48°41' W 123°24'0 0.0
2018-Feb-16 15:59N 48°41' W 123°24'0 0.0
2018-Feb-16 15:31N 48°41' W 123°24'0 0.0
2018-Feb-16 15:00N 48°41' W 123°24'0 0.0
2018-Feb-16 14:31N 48°41' W 123°24'0 0.0
2018-Feb-16 14:00N 48°41' W 123°24'0 0.1
2018-Feb-16 13:30N 48°41' W 123°24'5 9.5
2018-Feb-16 13:00N 48°46' W 123°21'611.9
2018-Feb-16 12:29N 48°52' W 123°19'714.3
2018-Feb-16 12:00N 48°59' W 123°19'714.2
2018-Feb-16 11:31N 49°06' W 123°19'612.0
2018-Feb-16 11:00N 49°07' W 123°10'510.9
2018-Feb-16 10:30N 49°09' W 123°03'0 0.7
2018-Feb-16 10:00N 49°09' W 123°02'0 0.0
2018-Feb-16 09:30N 49°09' W 123°02'0 0.0
2018-Feb-16 09:00N 49°09' W 123°02'0 0.2
2018-Feb-16 08:30N 49°09' W 123°02'4 8.7
2018-Feb-16 08:00N 49°06' W 123°08'510.1
2018-Feb-16 07:30N 49°07' W 123°15'611.4
2018-Feb-16 07:00N 49°07' W 123°24'714.6
2018-Feb-16 06:31N 49°09' W 123°34'814.3
2018-Feb-16 05:59N 49°12' W 123°45'5 2.2
2018-Feb-16 03:29N 49°09' W 123°52'7 9.1
2018-Feb-16 02:43N 49°12' W 123°43'315.1
2018-Feb-16 02:29N 49°11' W 123°38'715.0
2018-Feb-16 02:00N 49°08' W 123°28'714.0
2018-Feb-16 01:30N 49°07' W 123°17'713.5
2018-Feb-16 01:00N 49°07' W 123°07'4 7.5
2018-Feb-16 00:31N 49°09' W 123°02'0 0.0
2018-Feb-16 00:00N 49°09' W 123°02'0 0.0
2018-Feb-15 23:31N 49°09' W 123°02'0 0.0
2018-Feb-15 23:00N 49°09' W 123°02'3 5.7
2018-Feb-15 22:30N 49°07' W 123°05'613.1
2018-Feb-15 22:00N 49°07' W 123°15'612.1
2018-Feb-15 21:30N 49°02' W 123°18'816.4
2018-Feb-15 21:00N 48°53' W 123°18'612.5
2018-Feb-15 20:30N 48°47' W 123°20'612.4
2018-Feb-15 20:00N 48°42' W 123°24'0 0.8
2018-Feb-15 19:30N 48°41' W 123°24'0 0.0
2018-Feb-15 19:00N 48°41' W 123°24'0 0.0
2018-Feb-15 18:30N 48°41' W 123°24'0 0.0
2018-Feb-15 18:00N 48°41' W 123°24'0 0.0
2018-Feb-15 17:30N 48°41' W 123°24'0 0.0
2018-Feb-15 17:00N 48°41' W 123°24'0 0.0
2018-Feb-15 16:30N 48°41' W 123°24'0 0.0
2018-Feb-15 16:00N 48°41' W 123°24'0 0.0
2018-Feb-15 15:30N 48°41' W 123°24'0 0.0
2018-Feb-15 15:00N 48°41' W 123°24'0 0.0
2018-Feb-15 14:30N 48°41' W 123°24'0 0.0
2018-Feb-15 14:00N 48°41' W 123°24'0 0.0
2018-Feb-15 13:30N 48°41' W 123°24'4 7.8
2018-Feb-15 13:00N 48°44' W 123°21'714.6
2018-Feb-15 12:30N 48°52' W 123°20'713.5
2018-Feb-15 12:00N 48°58' W 123°20'715.0
2018-Feb-15 11:31N 49°06' W 123°19'713.5
2018-Feb-15 11:00N 49°07' W 123°09'510.2
2018-Feb-15 10:30N 49°09' W 123°02'0 0.0
2018-Feb-15 10:00N 49°09' W 123°02'0 0.0
2018-Feb-15 09:30N 49°09' W 123°02'0 0.0
2018-Feb-15 09:00N 49°09' W 123°02'0 0.4
2018-Feb-15 08:30N 49°09' W 123°02'510.5
2018-Feb-15 08:00N 49°07' W 123°10'510.5
2018-Feb-15 07:30N 49°06' W 123°18'713.6
2018-Feb-15 07:00N 49°08' W 123°28'815.1
2018-Feb-15 06:30N 49°11' W 123°39'815.3
2018-Feb-15 06:00N 49°13' W 123°50'3 1.4
2018-Feb-15 03:33N 49°10' W 123°53'115.5
2018-Feb-15 03:30N 49°10' W 123°53'610.8
2018-Feb-15 02:59N 49°13' W 123°45'815.4
2018-Feb-15 02:29N 49°10' W 123°34'815.7
2018-Feb-15 01:59N 49°08' W 123°22'5 9.8
2018-Feb-15 01:31N 49°08' W 123°15'612.7
2018-Feb-15 01:00N 49°07' W 123°05'3 5.5
2018-Feb-15 00:30N 49°09' W 123°02'0 0.0
2018-Feb-15 00:00N 49°09' W 123°02'0 0.0
2018-Feb-14 23:30N 49°09' W 123°02'0 0.2
2018-Feb-14 23:00N 49°09' W 123°02'510.6
2018-Feb-14 22:30N 49°07' W 123°10'713.2
2018-Feb-14 22:01N 49°06' W 123°20'713.2
2018-Feb-14 21:30N 48°60' W 123°18'815.0
2018-Feb-14 21:00N 48°52' W 123°18'611.2
2018-Feb-14 20:30N 48°47' W 123°20'611.3
2018-Feb-14 20:00N 48°42' W 123°24'0 0.5
2018-Feb-14 19:30N 48°41' W 123°24'0 0.0
2018-Feb-14 19:00N 48°41' W 123°24'0 0.0
2018-Feb-14 18:30N 48°41' W 123°24'0 0.0
2018-Feb-14 18:00N 48°41' W 123°24'0 0.0
2018-Feb-14 17:30N 48°41' W 123°24'0 0.0
2018-Feb-14 17:00N 48°41' W 123°24'0 0.0
2018-Feb-14 16:30N 48°41' W 123°24'0 0.0
2018-Feb-14 16:00N 48°41' W 123°24'0 0.0
2018-Feb-14 15:30N 48°41' W 123°24'0 0.0
2018-Feb-14 15:00N 48°41' W 123°24'0 0.0
2018-Feb-14 14:30N 48°41' W 123°24'0 0.0
2018-Feb-14 14:00N 48°41' W 123°24'0 0.3
2018-Feb-14 13:30N 48°41' W 123°24'5 9.9
2018-Feb-14 13:01N 48°46' W 123°21'713.2
2018-Feb-14 12:31N 48°52' W 123°18'815.7
2018-Feb-14 12:00N 49°00' W 123°19'713.3
2018-Feb-14 11:31N 49°07' W 123°17'611.7
2018-Feb-14 11:00N 49°07' W 123°08'5 9.1
2018-Feb-14 10:30N 49°09' W 123°02'0 0.0
2018-Feb-14 10:00N 49°09' W 123°02'0 0.0
2018-Feb-14 09:30N 49°09' W 123°02'0 0.0
2018-Feb-14 09:00N 49°09' W 123°02'2 3.8
2018-Feb-14 08:30N 49°07' W 123°04'611.5
2018-Feb-14 08:00N 49°08' W 123°13'611.5
2018-Feb-14 07:30N 49°06' W 123°22'714.2
2018-Feb-14 07:00N 49°09' W 123°32'914.0
2018-Feb-14 06:24N 49°12' W 123°44'611.6
2018-Feb-14 05:53N 49°12' W 123°53'5 1.9
2018-Feb-14 03:08N 49°13' W 123°45'314.6
2018-Feb-14 02:57N 49°12' W 123°41'714.6
2018-Feb-14 02:30N 49°10' W 123°32'714.5
2018-Feb-14 02:00N 49°07' W 123°22'713.2
2018-Feb-14 01:30N 49°07' W 123°12'611.9
2018-Feb-14 01:00N 49°08' W 123°03'1 1.0
2018-Feb-14 00:30N 49°09' W 123°02'0 0.0
2018-Feb-14 00:00N 49°09' W 123°02'0 0.0
2018-Feb-13 23:30N 49°09' W 123°02'0 0.3
2018-Feb-13 23:00N 49°09' W 123°02'510.7
2018-Feb-13 22:30N 49°07' W 123°10'612.8
2018-Feb-13 22:00N 49°06' W 123°19'815.5
2018-Feb-13 21:30N 48°58' W 123°17'713.7
2018-Feb-13 21:00N 48°51' W 123°21'714.0
2018-Feb-13 20:30N 48°44' W 123°21'4 8.0
2018-Feb-13 20:00N 48°41' W 123°24'0 0.0
2018-Feb-13 19:30N 48°41' W 123°24'0 0.0
2018-Feb-13 19:00N 48°41' W 123°24'0 0.0
2018-Feb-13 18:30N 48°41' W 123°24'0 0.0
2018-Feb-13 18:00N 48°41' W 123°24'0 0.0
2018-Feb-13 17:30N 48°41' W 123°24'0 0.0
2018-Feb-13 17:00N 48°41' W 123°24'0 0.0
2018-Feb-13 16:30N 48°41' W 123°24'0 0.0
2018-Feb-13 16:00N 48°41' W 123°24'0 0.0
2018-Feb-13 15:30N 48°41' W 123°24'0 0.0
2018-Feb-13 15:00N 48°41' W 123°24'0 0.0
2018-Feb-13 14:30N 48°41' W 123°24'0 0.0
2018-Feb-13 14:00N 48°41' W 123°24'0 0.0
2018-Feb-13 13:30N 48°41' W 123°24'0 0.0
2018-Feb-13 13:00N 48°41' W 123°24'0 0.0
2018-Feb-13 12:30N 48°41' W 123°24'0 0.0
2018-Feb-13 12:00N 48°41' W 123°24'0 0.0
2018-Feb-13 11:30N 48°41' W 123°24'0 0.0
2018-Feb-13 11:00N 48°41' W 123°24'5 9.5
2018-Feb-13 10:31N 48°45' W 123°21'612.4
2018-Feb-13 10:00N 48°52' W 123°20'611.1
2018-Feb-13 09:30N 48°57' W 123°19'612.8
2018-Feb-13 09:00N 49°03' W 123°21'611.9
2018-Feb-13 08:30N 49°08' W 123°15'611.9
2018-Feb-13 08:01N 49°07' W 123°06'3 6.3
2018-Feb-13 07:30N 49°09' W 123°02'0 0.0
2018-Feb-13 07:00N 49°09' W 123°02'0 0.0
2018-Feb-13 06:30N 49°09' W 123°02'0 0.0
2018-Feb-13 06:00N 49°09' W 123°02'0 0.0
2018-Feb-13 05:30N 49°09' W 123°02'0 0.0
2018-Feb-13 05:00N 49°09' W 123°02'0 0.0
2018-Feb-13 04:30N 49°09' W 123°02'0 0.0
2018-Feb-13 04:00N 49°09' W 123°02'0 0.0
2018-Feb-13 03:30N 49°09' W 123°02'0 0.0
2018-Feb-13 03:00N 49°09' W 123°02'0 0.0
2018-Feb-13 02:30N 49°09' W 123°02'0 0.0
2018-Feb-13 02:00N 49°09' W 123°02'0 0.0
2018-Feb-13 01:30N 49°09' W 123°02'0 0.0
2018-Feb-13 01:00N 49°09' W 123°02'0 0.0
2018-Feb-13 00:30N 49°09' W 123°02'0 0.0
2018-Feb-13 00:00N 49°09' W 123°02'0 0.0
2018-Feb-12 23:30N 49°09' W 123°02'0 0.0
2018-Feb-12 23:00N 49°09' W 123°02'0 0.0
2018-Feb-12 22:30N 49°09' W 123°02'0 0.0
2018-Feb-12 22:00N 49°09' W 123°02'0 0.0
2018-Feb-12 21:30N 49°09' W 123°02'0 0.0
2018-Feb-12 21:00N 49°09' W 123°02'0 0.0
2018-Feb-12 20:30N 49°09' W 123°02'0 0.0
2018-Feb-12 20:00N 49°09' W 123°02'0 0.0
2018-Feb-12 19:28N 49°09' W 123°02'0 0.0
2018-Feb-12 19:00N 49°09' W 123°02'0 0.0
2018-Feb-12 18:30N 49°09' W 123°02'0 0.0
2018-Feb-12 18:00N 49°09' W 123°02'0 0.0
2018-Feb-12 17:30N 49°09' W 123°02'0 0.0
2018-Feb-12 17:00N 49°09' W 123°02'0 0.1
2018-Feb-12 16:30N 49°09' W 123°02'5 9.8
2018-Feb-12 15:59N 49°07' W 123°09'511.3
2018-Feb-12 15:30N 49°07' W 123°17'510.3
2018-Feb-12 15:00N 49°01' W 123°18'612.4
2018-Feb-12 14:30N 48°55' W 123°17'510.8
2018-Feb-12 14:00N 48°51' W 123°21'612.7
2018-Feb-12 13:30N 48°44' W 123°21'4 7.8
2018-Feb-12 13:00N 48°41' W 123°24'0 0.0
2018-Feb-12 12:30N 48°41' W 123°24'0 0.0
2018-Feb-12 12:00N 48°41' W 123°24'0 0.0
2018-Feb-12 11:30N 48°41' W 123°24'0 0.0
2018-Feb-12 11:00N 48°41' W 123°24'3 6.3
2018-Feb-12 10:30N 48°43' W 123°21'713.4
2018-Feb-12 10:00N 48°50' W 123°21'510.3
2018-Feb-12 09:30N 48°55' W 123°18'612.6
2018-Feb-12 09:00N 49°01' W 123°20'611.3
2018-Feb-12 08:30N 49°07' W 123°17'611.7
2018-Feb-12 08:00N 49°07' W 123°08'5 9.1
2018-Feb-12 07:30N 49°09' W 123°02'0 0.0
2018-Feb-12 07:00N 49°09' W 123°02'0 0.0
2018-Feb-12 06:30N 49°09' W 123°02'0 0.0
2018-Feb-12 06:00N 49°09' W 123°02'0 0.0
2018-Feb-12 05:30N 49°09' W 123°02'0 0.0
2018-Feb-12 05:00N 49°09' W 123°02'0 0.0
2018-Feb-12 04:30N 49°09' W 123°02'0 0.0
2018-Feb-12 04:00N 49°09' W 123°02'0 0.0
2018-Feb-12 03:30N 49°09' W 123°02'0 0.0
2018-Feb-12 03:00N 49°09' W 123°02'0 0.0
2018-Feb-12 02:30N 49°09' W 123°02'0 0.0
2018-Feb-12 02:00N 49°09' W 123°02'0 0.0
2018-Feb-12 01:30N 49°09' W 123°02'0 0.0
2018-Feb-12 01:00N 49°09' W 123°02'0 0.0
2018-Feb-12 00:30N 49°09' W 123°02'0 0.0
2018-Feb-12 00:00N 49°09' W 123°02'0 0.0
2018-Feb-11 23:30N 49°09' W 123°02'0 0.0
2018-Feb-11 23:00N 49°09' W 123°02'0 0.0
2018-Feb-11 22:30N 49°09' W 123°02'0 0.0
2018-Feb-11 22:00N 49°09' W 123°02'0 0.0
2018-Feb-11 21:30N 49°09' W 123°02'0 0.0
2018-Feb-11 21:00N 49°09' W 123°02'0 0.0
2018-Feb-11 20:30N 49°09' W 123°02'0 0.0
2018-Feb-11 20:00N 49°09' W 123°02'0 0.0
2018-Feb-11 19:30N 49°09' W 123°02'0 0.0
2018-Feb-11 19:00N 49°09' W 123°02'0 0.0
2018-Feb-11 18:30N 49°09' W 123°02'0 0.0
2018-Feb-11 18:00N 49°09' W 123°02'0 0.0
2018-Feb-11 17:30N 49°09' W 123°02'0 0.0
2018-Feb-11 17:00N 49°09' W 123°02'2 4.5
2018-Feb-11 16:30N 49°07' W 123°05'5 9.8
2018-Feb-11 16:00N 49°07' W 123°12'510.7
2018-Feb-11 15:30N 49°06' W 123°20'611.1
2018-Feb-11 15:00N 49°08' W 123°28'611.0
2018-Feb-11 14:29N 49°10' W 123°36'611.5
2018-Feb-11 14:00N 49°12' W 123°44'510.8
2018-Feb-11 13:30N 49°13' W 123°52'4 1.1
2018-Feb-11 10:01N 49°09' W 123°52'0 4.0
2018-Feb-11 09:58N 49°09' W 123°52'6 9.1
2018-Feb-11 09:17N 49°13' W 123°46'413.4
2018-Feb-11 08:59N 49°13' W 123°40'714.2
2018-Feb-11 08:30N 49°10' W 123°30'715.1
2018-Feb-11 08:01N 49°07' W 123°20'612.8
2018-Feb-11 07:30N 49°07' W 123°10'611.3
2018-Feb-11 07:00N 49°09' W 123°02'0 0.2
2018-Feb-11 06:30N 49°09' W 123°02'0 0.0
2018-Feb-11 06:00N 49°09' W 123°02'0 0.0
2018-Feb-11 05:30N 49°09' W 123°02'0 0.0
2018-Feb-11 05:00N 49°09' W 123°02'0 0.0
2018-Feb-11 04:30N 49°09' W 123°02'0 0.0
2018-Feb-11 04:00N 49°09' W 123°02'0 0.0
2018-Feb-11 03:30N 49°09' W 123°02'0 0.0
2018-Feb-11 03:00N 49°09' W 123°02'0 0.0
2018-Feb-11 02:30N 49°09' W 123°02'0 0.0
2018-Feb-11 02:00N 49°09' W 123°02'0 0.0
2018-Feb-11 01:30N 49°09' W 123°02'0 0.0
2018-Feb-11 01:00N 49°09' W 123°02'0 0.0
2018-Feb-11 00:30N 49°09' W 123°02'0 0.0
2018-Feb-11 00:00N 49°09' W 123°02'0 0.0
2018-Feb-10 23:30N 49°09' W 123°02'0 0.0
2018-Feb-10 23:00N 49°09' W 123°02'4 8.2
2018-Feb-10 22:30N 49°07' W 123°07'612.6
2018-Feb-10 22:01N 49°07' W 123°17'612.4
2018-Feb-10 21:30N 49°01' W 123°17'815.4
2018-Feb-10 20:59N 48°53' W 123°18'510.9
2018-Feb-10 20:31N 48°48' W 123°20'713.1
2018-Feb-10 20:00N 48°42' W 123°24'0 0.8
2018-Feb-10 19:30N 48°41' W 123°24'0 0.0
2018-Feb-10 19:00N 48°41' W 123°24'0 0.0
2018-Feb-10 18:30N 48°41' W 123°24'0 0.0
2018-Feb-10 18:00N 48°41' W 123°24'0 0.0
2018-Feb-10 17:30N 48°41' W 123°24'0 0.0
2018-Feb-10 17:00N 48°41' W 123°24'0 0.0
2018-Feb-10 16:30N 48°41' W 123°24'0 0.0
2018-Feb-10 16:00N 48°41' W 123°24'0 0.0
2018-Feb-10 15:30N 48°41' W 123°24'0 0.0
2018-Feb-10 15:00N 48°41' W 123°24'0 0.0
2018-Feb-10 14:30N 48°41' W 123°24'0 0.0
2018-Feb-10 14:00N 48°41' W 123°24'0 0.0
2018-Feb-10 13:30N 48°41' W 123°24'2 3.4
2018-Feb-10 13:00N 48°42' W 123°22'612.7
2018-Feb-10 12:30N 48°48' W 123°21'611.1
2018-Feb-10 12:00N 48°54' W 123°18'714.0
2018-Feb-10 11:31N 49°00' W 123°21'612.6
2018-Feb-10 11:00N 49°06' W 123°18'612.3
2018-Feb-10 10:30N 49°06' W 123°09'5 9.7
2018-Feb-10 10:00N 49°09' W 123°02'0 0.0
2018-Feb-10 09:30N 49°09' W 123°02'0 0.0
2018-Feb-10 09:00N 49°09' W 123°02'0 0.0
2018-Feb-10 08:30N 49°09' W 123°02'4 7.5
2018-Feb-10 08:00N 49°07' W 123°07'612.1
2018-Feb-10 07:30N 49°07' W 123°16'612.5
2018-Feb-10 06:59N 49°07' W 123°26'612.6
2018-Feb-10 06:30N 49°09' W 123°35'713.4
2018-Feb-10 05:59N 49°12' W 123°45'6 2.1
2018-Feb-10 03:17N 49°11' W 123°53'613.0
2018-Feb-10 02:48N 49°12' W 123°44'413.7
2018-Feb-10 02:30N 49°11' W 123°38'713.6
2018-Feb-10 02:00N 49°08' W 123°28'714.2
2018-Feb-10 01:30N 49°06' W 123°18'815.3
2018-Feb-10 01:00N 49°07' W 123°06'3 6.6
2018-Feb-10 00:30N 49°09' W 123°02'0 0.0
2018-Feb-10 00:00N 49°09' W 123°02'0 0.0
2018-Feb-09 23:30N 49°09' W 123°02'0 0.2
2018-Feb-09 23:00N 49°09' W 123°02'310.9
2018-Feb-09 22:45N 49°07' W 123°05'1810.4
2018-Feb-09 21:00N 48°52' W 123°20'  

Dump ship's entire track history